ADDS METAR Data INFO
IDs: Format: Raw Decoded Include TAF

Data at: 0752 UTC 17 Oct 2017

KFCH 170715Z AUTO 00000KT 9SM FEW025 FEW035 FEW045 14/07 A3009 RMK A01
KFCH 170655Z AUTO 00000KT 10SM FEW028 FEW033 SCT045 15/08 A3009 RMK A01
KFCH 170635Z AUTO 00000KT 10SM SCT027 BKN033 BKN041 15/07 A3009 RMK A01
KFCH 170615Z AUTO 00000KT 9SM FEW023 BKN030 BKN036 16/06 A3009 RMK A01
KFCH 170555Z AUTO 00000KT 9SM FEW022 SCT029 BKN035 16/06 A3009 RMK A01
KFCH 170535Z AUTO 00000KT 9SM FEW032 SCT041 SCT047 16/06 A3009 RMK A01
KFCH 170515Z AUTO 00000KT 9SM FEW033 FEW040 SCT046 16/07 A3009 RMK A01
KFCH 170455Z AUTO 00000KT 8SM FEW026 FEW033 BKN046 17/07 A3008 RMK A01
KFCH 170435Z AUTO 00000KT 8SM FEW033 FEW046 17/07 A3007 RMK A01
KFCH 170415Z AUTO 00000KT 8SM FEW048 18/08 A3007 RMK A01
KFCH 170355Z AUTO 00000KT 6SM HZ FEW048 19/07 A3007 RMK A01
KFCH 170335Z AUTO 00000KT 6SM HZ SCT048 20/07 A3006 RMK A01
KFCH 170315Z AUTO 00000KT 10SM 20/08 A3006 RMK A01
KFCH 170255Z AUTO A3005 RMK A01
KFCH 170235Z AUTO 00000KT 10SM BKN047 22/07 A3005 RMK A01
KFCH 170215Z AUTO 00000KT 10SM BKN047 22/07 A3005 RMK A01
KFCH 170155Z AUTO 00000KT 10SM SCT048 23/06 A3004 RMK A01
KFCH 170135Z AUTO 00000KT 10SM CLR 25/05 A3004 RMK A01
KFCH 170115Z AUTO 00000KT 10SM CLR 26/04 A3004 RMK A01
KFCH 170055Z AUTO 31003KT 10SM CLR 27/03 A3004 RMK A01
KFCH 170035Z AUTO 30006KT 10SM CLR 27/03 A3005 RMK A01
KFCH 170015Z AUTO 30004KT 10SM CLR 28/03 A3005 RMK A01
KFCH 162355Z AUTO 26006KT 10SM CLR 28/03 A3006 RMK A01
KFCH 162335Z AUTO 28003KT 10SM CLR 28/02 A3005 RMK A01
KFCH 162315Z AUTO 32003KT 10SM CLR 28/03 A3006 RMK A01
KFCH 162255Z AUTO 00000G10KT 10SM CLR 28/02 A3007 RMK A01
KFCH 162235Z AUTO 31005KT 9SM CLR 28/01 A3007 RMK A01
KFCH 162215Z AUTO 30006KT 9SM CLR 28/02 A3007 RMK A01
KFCH 162155Z AUTO 24004KT 10SM CLR 27/03 A3008 RMK A01
KFCH 162135Z AUTO 00000KT 10SM CLR 27/03 A3008 RMK A01
KFCH 162115Z AUTO 00000KT 10SM CLR 27/04 A3009 RMK A01
KFCH 162055Z AUTO VRB04KT 10SM CLR 26/04 A3010 RMK A01
KFCH 162035Z AUTO VRB04KT 10SM CLR 25/05 A3011 RMK A01
KFCH 162015Z AUTO 23004KT 9SM CLR 25/04 A3012 RMK A01
KFCH 161955Z AUTO 20004KT 7SM CLR 25/06 A3013 RMK A01
KFCH 161935Z AUTO 00000KT 6SM HZ CLR 24/06 A3014 RMK A01
KFCH 161915Z AUTO 00000KT 6SM HZ CLR 24/06 A3015 RMK A01
KFCH 161855Z AUTO 00000KT 6SM HZ CLR 23/06 A3015 RMK A01
KFCH 161835Z AUTO 00000KT 6SM HZ CLR 22/06 A3016 RMK A01
KFCH 161815Z AUTO 00000KT 6SM HZ CLR 21/06 A3017 RMK A01
KFCH 161755Z AUTO 00000KT 5SM HZ CLR 20/06 A3017 RMK A01
KFCH 161735Z AUTO 00000KT 5SM HZ CLR 20/06 A3017 RMK A01
KFCH 161715Z AUTO 00000KT 5SM HZ CLR 19/06 A3018 RMK A01
KFCH 161655Z AUTO 00000KT 5SM HZ CLR 18/07 A3018 RMK A01
KFCH 161635Z AUTO 00000KT 6SM HZ CLR 17/07 A3018 RMK A01
KFCH 161615Z AUTO 00000KT 7SM CLR 15/07 A3018 RMK A01
KFCH 161555Z AUTO 00000KT 6SM HZ CLR 14/07 A3017 RMK A01
KFCH 161535Z AUTO 00000KT 6SM HZ 13/07 A3017 RMK A01
KFCH 161515Z AUTO 00000KT 6SM HZ CLR 11/07 A3016 RMK A01
KFCH 161455Z AUTO 00000KT 7SM CLR 11/07 A3016 RMK A01
KFCH 161435Z AUTO 00000KT 8SM CLR 10/06 A3015 RMK A01
KFCH 161415Z AUTO 00000KT 8SM CLR 10/07 A3015 RMK A01
KFCH 161355Z AUTO 00000KT 9SM BKN049 10/07 A3015 RMK A01
KFCH 161335Z AUTO 00000KT 10SM OVC048 10/07 A3014 RMK A01
KFCH 161315Z AUTO 00000KT 10SM OVC050 10/07 A3014 RMK A01
KFCH 161255Z AUTO 00000KT 10SM OVC048 10/07 A3014 RMK A01
KFCH 161235Z AUTO 00000KT 10SM OVC048 10/07 A3014 RMK A01
KFCH 161215Z AUTO 00000KT 10SM OVC048 10/07 A3013 RMK A01
KFCH 161155Z AUTO 00000KT 10SM OVC050 10/07 A3013 RMK A01
KFCH 161135Z AUTO 00000KT 10SM OVC050 10/07 A3013 RMK A01
KFCH 161115Z AUTO 00000KT 10SM OVC050 10/07 A3013 RMK A01
KFCH 161055Z AUTO 00000KT 10SM BKN050 11/07 A3013 RMK A01
KFCH 161035Z AUTO 00000KT 10SM CLR 11/07 A3014 RMK A01
KFCH 161015Z AUTO 00000KT 10SM CLR 11/08 A3014 RMK A01
KFCH 160955Z AUTO 00000KT 10SM CLR 11/07 A3014 RMK A01
KFCH 160935Z AUTO 00000KT 10SM CLR 11/07 A3013 RMK A01
KFCH 160915Z AUTO 00000KT 10SM CLR 12/07 A3013 RMK A01
KFCH 160855Z AUTO 00000KT 10SM CLR 13/08 A3013 RMK A01
KFCH 160835Z AUTO 00000KT 10SM CLR 13/07 A3013 RMK A01
KFCH 160815Z AUTO 00000KT 10SM CLR 13/08 A3013 RMK A01
KFCH 160755Z AUTO 00000KT 10SM 14/07 A3013 RMK A01
KFCH 160715Z AUTO 00000KT 10SM CLR 14/07 A3013 RMK A01
KFCH 160655Z AUTO 00000KT 10SM CLR 15/06 A3013 RMK A01
KFCH 160635Z AUTO 00000KT 10SM CLR 16/08 A3013 RMK A01
KFCH 160615Z AUTO 00000KT 10SM CLR 16/07 A3013 RMK A01
KFCH 160555Z AUTO 00000KT 10SM CLR 17/07 A3013 RMK A01
KFCH 160535Z AUTO 00000KT 10SM CLR 17/07 A3013 RMK A01
KFCH 160515Z AUTO 00000KT 10SM CLR 18/07 A3013 RMK A01
KFCH 160455Z AUTO 30003KT 10SM CLR 18/07 A3013 RMK A01
KFCH 160435Z AUTO 00000KT 9SM FEW044 19/06 A3012 RMK A01
KFCH 160415Z AUTO 00000KT 10SM CLR 19/06 A3011 RMK A01
KFCH 160355Z AUTO 32003KT 10SM CLR 19/07 A3011 RMK A01
KFCH 160335Z AUTO 31003KT 10SM CLR 19/08 A3011 RMK A01
KFCH 160315Z AUTO 00000KT 10SM 20/05 A3010 RMK A01
KFCH 160235Z AUTO 30003KT 10SM CLR 22/05 A3009 RMK A01
KFCH 160215Z AUTO 00000KT 10SM CLR 23/05 A3008 RMK A01
KFCH 160155Z AUTO 00000KT 10SM CLR 23/05 A3008 RMK A01
KFCH 160135Z AUTO 31003KT 10SM CLR 25/04 A3008 RMK A01
KFCH 160115Z AUTO 32004KT 10SM CLR 26/03 A3008 RMK A01
KFCH 160055Z AUTO 31005KT 10SM CLR 26/03 A3008 RMK A01
KFCH 160035Z AUTO 28005KT 10SM CLR 27/03 A3007 RMK A01
KFCH 160015Z AUTO 27004KT 10SM CLR 27/04 A3008 RMK A01
KFCH 152355Z AUTO 26004KT 10SM CLR 28/04 A3008 RMK A01
KFCH 152335Z AUTO 25006KT 10SM CLR 28/03 A3008 RMK A01
KFCH 152315Z AUTO 30004KT 10SM CLR 28/02 A3008 RMK A01
KFCH 152255Z AUTO 33004KT 10SM CLR 28/02 A3009 RMK A01
KFCH 152235Z AUTO 27005KT 9SM CLR 28/02 A3009 RMK A01
KFCH 152215Z AUTO 23004KT 9SM CLR 27/03 A3010 RMK A01
KFCH 152155Z AUTO 25004KT 9SM CLR 27/02 A3010 RMK A01
KFCH 152135Z AUTO 00000KT 10SM CLR 27/03 A3011 RMK A01
KFCH 152115Z AUTO 27004KT 9SM CLR 26/03 A3011 RMK A01
KFCH 152055Z AUTO 00000KT 9SM CLR 26/04 A3012 RMK A01
KFCH 152035Z AUTO 00000KT 9SM CLR 26/02 A3013 RMK A01
KFCH 152015Z AUTO 00000KT 9SM CLR 25/04 A3014 RMK A01
KFCH 151955Z AUTO 00000KT 9SM CLR 25/04 A3015 RMK A01